Time;durP1;ratioP1;P1;durP2;ratioP2;P2;SDS_P1;SDS_P2;PMS_P1;PMS_P2;Temp;Humidity;BMP_temperature;BMP_pressure;BME280_temperature;BME280_humidity;BME280_pressure;Samples;Min_cycle;Max_cycle;Signal;HPM_P1;HPM_P2
2024/02/20 00:00:23;;;;;;;14.10;2.13;;;9.50;87.10;;;;;;5033053;28;20039;-62
2024/02/20 00:02:49;;;;;;;8.52;2.08;;;9.50;87.10;;;;;;5030890;28;20033;-62
2024/02/20 00:05:15;;;;;;;4.65;2.22;;;9.50;87.10;;;;;;5030403;28;20025;-66
2024/02/20 00:07:42;;;;;;;7.28;2.47;;;9.50;87.10;;;;;;5032294;28;20087;-66
2024/02/20 00:10:10;;;;;;;6.10;1.88;;;9.50;87.10;;;;;;5030374;28;20099;-66
2024/02/20 00:12:42;;;;;;;8.80;2.38;;;9.50;87.00;;;;;;5028331;28;20034;-62
2024/02/20 00:15:08;;;;;;;7.45;2.30;;;9.50;87.00;;;;;;5027756;28;20516;-62
2024/02/20 00:17:35;;;;;;;6.68;2.97;;;9.50;87.00;;;;;;5031295;28;20518;-65
2024/02/20 00:20:05;;;;;;;5.72;2.03;;;9.50;86.90;;;;;;5029920;28;20036;-66
2024/02/20 00:22:32;;;;;;;12.70;2.92;;;9.50;86.90;;;;;;5028148;28;20026;-66
2024/02/20 00:24:58;;;;;;;3.15;1.88;;;9.40;86.90;;;;;;5032794;28;20013;-66
2024/02/20 00:27:24;;;;;;;5.82;2.10;;;9.40;87.00;;;;;;5030817;28;20029;-66
2024/02/20 00:29:50;;;;;;;6.05;2.25;;;9.40;87.10;;;;;;5029386;28;20030;-62
2024/02/20 00:32:17;;;;;;;4.28;1.90;;;9.40;87.10;;;;;;5030729;28;20029;-61
2024/02/20 00:34:43;;;;;;;4.88;2.47;;;9.40;87.10;;;;;;5030330;28;20030;-62
2024/02/20 00:37:09;;;;;;;6.78;2.20;;;9.40;87.10;;;;;;5031445;28;20369;-62
2024/02/20 00:39:36;;;;;;;3.15;1.20;;;9.40;87.00;;;;;;5025762;28;20036;-63
2024/02/20 00:42:02;;;;;;;2.22;1.58;;;9.40;87.10;;;;;;5031537;28;20050;-62
2024/02/20 00:44:28;;;;;;;5.57;1.48;;;9.40;87.10;;;;;;5030065;28;20033;-62
2024/02/20 00:46:54;;;;;;;3.42;1.25;;;9.40;87.10;;;;;;5033462;28;20025;-62
2024/02/20 00:49:20;;;;;;;5.38;1.48;;;9.40;87.00;;;;;;5030565;28;20044;-63
2024/02/20 00:51:46;;;;;;;11.88;2.60;;;9.40;87.00;;;;;;5032160;28;20045;-62
2024/02/20 00:54:13;;;;;;;8.13;2.30;;;9.40;87.00;;;;;;5033833;28;20056;-63
2024/02/20 00:56:39;;;;;;;4.60;1.27;;;9.30;87.10;;;;;;5030288;28;20052;-62
2024/02/20 00:59:07;;;;;;;6.93;1.60;;;9.40;87.70;;;;;;5028677;28;20079;-62
2024/02/20 01:01:33;;;;;;;9.10;2.05;;;9.30;87.00;;;;;;5033619;28;20230;-63
2024/02/20 01:03:59;;;;;;;8.57;2.42;;;9.30;87.00;;;;;;5030835;28;20029;-63
2024/02/20 01:06:25;;;;;;;4.95;1.20;;;9.30;87.00;;;;;;5030974;28;20025;-62
2024/02/20 01:08:51;;;;;;;5.53;1.52;;;9.30;86.90;;;;;;5032733;28;20053;-62
2024/02/20 01:11:17;;;;;;;6.95;2.47;;;9.20;87.00;;;;;;5035428;28;20107;-62
2024/02/20 01:13:43;;;;;;;7.20;1.88;;;9.20;87.10;;;;;;5027997;28;20040;-62
2024/02/20 01:16:09;;;;;;;11.07;1.60;;;9.20;87.10;;;;;;5012040;28;20384;-62
2024/02/20 01:18:37;;;;;;;4.10;1.83;;;9.20;87.10;;;;;;5028581;28;20034;-62
2024/02/20 01:21:04;;;;;;;6.38;2.17;;;9.10;87.10;;;;;;5027714;28;20041;-62
2024/02/20 01:23:30;;;;;;;7.70;1.77;;;9.10;87.10;;;;;;5030721;28;20124;-62
2024/02/20 01:25:55;;;;;;;3.85;1.80;;;9.10;87.20;;;;;;5034925;28;20117;-62
2024/02/20 01:28:22;;;;;;;5.30;1.83;;;9.10;87.20;;;;;;5027966;28;20030;-63
2024/02/20 01:30:48;;;;;;;5.10;2.88;;;9.20;87.30;;;;;;5029841;28;20033;-62
2024/02/20 01:33:14;;;;;;;1.10;1.02;;;9.10;87.20;;;;;;5032178;28;20035;-62
2024/02/20 01:35:41;;;;;;;1.85;1.17;;;9.10;87.20;;;;;;5029601;28;20041;-62
2024/02/20 01:38:07;;;;;;;7.00;1.67;;;9.20;87.30;;;;;;5029747;28;20139;-62
2024/02/20 01:40:38;;;;;;;8.07;2.97;;;9.20;87.20;;;;;;5025718;28;20033;-62
2024/02/20 01:43:07;;;;;;;3.40;1.40;;;9.20;87.20;;;;;;5029494;28;20571;-62
2024/02/20 01:45:33;;;;;;;4.55;1.75;;;9.20;87.20;;;;;;5034392;28;20120;-65
2024/02/20 01:48:02;;;;;;;5.82;1.58;;;9.20;87.30;;;;;;5032083;28;20120;-66
2024/02/20 01:50:31;;;;;;;13.55;3.45;;;9.20;87.20;;;;;;5037313;28;20027;-65
2024/02/20 01:52:57;;;;;;;3.53;2.22;;;9.20;87.20;;;;;;5035796;28;20064;-62
2024/02/20 01:55:24;;;;;;;8.75;2.55;;;9.20;87.20;;;;;;5024669;28;20145;-66
2024/02/20 01:57:50;;;;;;;3.33;1.77;;;9.20;87.20;;;;;;5032118;28;20493;-65
2024/02/20 02:00:17;;;;;;;2.55;1.20;;;9.20;87.30;;;;;;5031619;28;20432;-65
2024/02/20 02:02:44;;;;;;;7.03;2.20;;;9.20;87.20;;;;;;5031848;28;20024;-65
2024/02/20 02:05:10;;;;;;;5.88;1.30;;;9.20;87.20;;;;;;5034304;28;20645;-66
2024/02/20 02:07:36;;;;;;;6.03;1.17;;;9.20;87.20;;;;;;5032308;28;20033;-66
2024/02/20 02:10:02;;;;;;;6.38;1.35;;;9.20;87.20;;;;;;5035378;28;20076;-65
2024/02/20 02:12:28;;;;;;;4.88;1.52;;;9.20;87.20;;;;;;5033304;28;20473;-66
2024/02/20 02:14:54;;;;;;;9.10;1.92;;;9.20;87.10;;;;;;5033712;28;20082;-62
2024/02/20 02:17:20;;;;;;;6.20;1.35;;;9.20;87.10;;;;;;5030548;28;20240;-62
2024/02/20 02:19:46;;;;;;;2.75;1.20;;;9.20;87.30;;;;;;5029087;28;20484;-62
2024/02/20 02:22:12;;;;;;;2.88;1.15;;;9.20;87.30;;;;;;5028001;28;20021;-62
2024/02/20 02:24:37;;;;;;;2.78;1.25;;;9.20;87.40;;;;;;5028972;28;20037;-62
2024/02/20 02:27:05;;;;;;;10.23;2.13;;;9.20;87.30;;;;;;5031283;28;20497;-62
2024/02/20 02:29:31;;;;;;;3.00;1.15;;;9.10;87.30;;;;;;5028767;28;20048;-66
2024/02/20 02:31:58;;;;;;;6.93;1.50;;;9.10;87.40;;;;;;5034328;28;20175;-66
2024/02/20 02:34:27;;;;;;;2.10;1.13;;;9.20;87.40;;;;;;5034116;28;20026;-65
2024/02/20 02:36:53;;;;;;;3.60;1.58;;;9.20;87.30;;;;;;5031696;28;20049;-66
2024/02/20 02:39:20;;;;;;;8.45;1.83;;;9.10;87.30;;;;;;5033820;28;20048;-66
2024/02/20 02:41:48;;;;;;;5.40;2.28;;;9.20;87.30;;;;;;5040549;28;20389;-65
2024/02/20 02:44:14;;;;;;;8.52;1.08;;;9.20;87.30;;;;;;5029468;28;20065;-66
2024/02/20 02:46:40;;;;;;;5.88;1.63;;;9.20;87.30;;;;;;5029971;28;20033;-66
2024/02/20 02:49:07;;;;;;;7.10;1.67;;;9.20;87.30;;;;;;5032392;28;20467;-66
2024/02/20 02:51:33;;;;;;;6.32;1.88;;;9.20;87.30;;;;;;5018032;28;20028;-62
2024/02/20 02:54:00;;;;;;;4.47;2.40;;;9.20;87.30;;;;;;5033649;28;20033;-62
2024/02/20 02:56:28;;;;;;;2.75;1.52;;;9.20;87.30;;;;;;5033549;28;20036;-62
2024/02/20 02:59:00;;;;;;;6.65;1.55;;;9.20;87.30;;;;;;5028428;28;20483;-62
2024/02/20 03:01:26;;;;;;;12.23;2.25;;;9.20;87.30;;;;;;5029673;28;20036;-62
2024/02/20 03:03:52;;;;;;;6.32;2.42;;;9.20;87.20;;;;;;5032433;28;20030;-62
2024/02/20 03:06:18;;;;;;;6.25;1.75;;;9.20;87.20;;;;;;5026824;28;20034;-62
2024/02/20 03:08:45;;;;;;;5.93;2.65;;;9.20;87.30;;;;;;5026408;28;20489;-62
2024/02/20 03:11:17;;;;;;;7.57;2.80;;;9.20;87.20;;;;;;5031113;28;20459;-62
2024/02/20 03:13:45;;;;;;;11.75;2.55;;;9.20;87.20;;;;;;5026556;28;20072;-63
2024/02/20 03:16:11;;;;;;;3.97;1.52;;;9.20;87.30;;;;;;5028654;28;20061;-62
2024/02/20 03:18:38;;;;;;;14.50;3.03;;;9.20;87.30;;;;;;5028466;28;20037;-63
2024/02/20 03:21:06;;;;;;;2.60;1.58;;;9.20;87.40;;;;;;5027142;28;20108;-62
2024/02/20 03:23:32;;;;;;;4.85;1.85;;;9.20;87.40;;;;;;5033533;28;20452;-62
2024/02/20 03:25:59;;;;;;;2.33;1.63;;;9.20;87.40;;;;;;5028757;28;20429;-62
2024/02/20 03:28:25;;;;;;;3.05;1.23;;;9.20;87.30;;;;;;5027200;28;20018;-62
2024/02/20 03:30:51;;;;;;;5.15;1.05;;;9.20;87.30;;;;;;5031162;28;20112;-63
2024/02/20 03:33:21;;;;;;;7.60;1.35;;;9.20;87.30;;;;;;5031161;28;20029;-66
2024/02/20 03:35:47;;;;;;;6.28;2.63;;;9.20;87.20;;;;;;5030364;28;20041;-66
2024/02/20 03:38:13;;;;;;;8.88;2.10;;;9.20;87.30;;;;;;5027491;28;20034;-66
2024/02/20 03:40:40;;;;;;;2.22;0.88;;;9.20;87.40;;;;;;5026391;28;20039;-66
2024/02/20 03:43:07;;;;;;;4.72;2.13;;;9.20;87.30;;;;;;5029980;28;20050;-65
2024/02/20 03:45:33;;;;;;;2.30;1.17;;;9.20;87.20;;;;;;5024995;28;20033;-66
2024/02/20 03:47:59;;;;;;;5.38;0.93;;;9.20;87.20;;;;;;5030605;28;20104;-66
2024/02/20 03:50:25;;;;;;;7.82;2.13;;;9.20;87.20;;;;;;5027556;28;20022;-62
2024/02/20 03:52:51;;;;;;;4.13;2.25;;;9.20;87.20;;;;;;5028752;28;20053;-62
2024/02/20 03:55:18;;;;;;;2.50;1.20;;;9.20;87.20;;;;;;5026030;28;20040;-62
2024/02/20 03:57:44;;;;;;;1.52;0.80;;;9.20;87.20;;;;;;5026784;28;20176;-63
2024/02/20 04:00:14;;;;;;;2.53;1.50;;;9.20;87.20;;;;;;5030341;28;20033;-62
2024/02/20 04:02:45;;;;;;;7.40;3.03;;;9.20;87.20;;;;;;5032737;28;20044;-66
2024/02/20 04:05:12;;;;;;;3.92;1.55;;;9.20;87.20;;;;;;5032459;28;20500;-63
2024/02/20 04:07:42;;;;;;;5.55;1.25;;;9.20;87.10;;;;;;5029594;28;20610;-62
2024/02/20 04:10:13;;;;;;;3.05;1.52;;;9.20;87.00;;;;;;5029772;28;20029;-62
2024/02/20 04:12:41;;;;;;;3.45;0.65;;;9.10;87.00;;;;;;5031264;28;20113;-62
2024/02/20 04:15:10;;;;;;;2.33;1.40;;;9.10;87.00;;;;;;5034621;28;20099;-62
2024/02/20 04:17:36;;;;;;;2.60;1.63;;;9.00;86.90;;;;;;5031527;28;20028;-62
2024/02/20 04:20:07;;;;;;;2.88;1.27;;;9.00;87.00;;;;;;5033996;28;20543;-62
2024/02/20 04:22:33;;;;;;;2.70;1.70;;;9.00;87.00;;;;;;5031302;28;20501;-62
2024/02/20 04:25:00;;;;;;;6.22;1.48;;;8.90;87.10;;;;;;5032838;28;20540;-62
2024/02/20 04:27:27;;;;;;;1.98;1.33;;;8.90;87.10;;;;;;5027963;28;20538;-62
2024/02/20 04:29:53;;;;;;;4.35;1.25;;;8.80;87.10;;;;;;5019064;28;20472;-62
2024/02/20 04:32:20;;;;;;;1.23;1.13;;;8.80;87.10;;;;;;5031031;28;20033;-62
2024/02/20 04:34:47;;;;;;;4.30;1.90;;;8.80;87.20;;;;;;5028386;28;20477;-62
2024/02/20 04:37:15;;;;;;;5.72;1.55;;;8.80;87.20;;;;;;5032523;28;20029;-66
2024/02/20 04:39:45;;;;;;;2.08;1.05;;;8.80;87.10;;;;;;5033438;28;20034;-66
2024/02/20 04:42:11;;;;;;;2.92;1.33;;;8.80;87.00;;;;;;5040506;28;20120;-65
2024/02/20 04:44:37;;;;;;;2.00;0.90;;;8.70;87.00;;;;;;5034198;28;20408;-66
2024/02/20 04:47:07;;;;;;;3.17;1.17;;;8.70;87.00;;;;;;5031329;28;20116;-66
2024/02/20 04:49:33;;;;;;;2.15;0.90;;;8.70;87.00;;;;;;5028260;28;20030;-66
2024/02/20 04:52:00;;;;;;;2.13;0.73;;;8.70;86.90;;;;;;5033628;28;20024;-66
2024/02/20 04:54:26;;;;;;;14.25;1.73;;;8.70;86.80;;;;;;5040180;28;20038;-66
2024/02/20 04:56:52;;;;;;;7.32;1.17;;;8.60;86.70;;;;;;5040659;28;20496;-66
2024/02/20 04:59:19;;;;;;;1.35;0.95;;;8.60;86.70;;;;;;5043016;28;20033;-66
2024/02/20 05:01:46;;;;;;;5.60;1.45;;;8.60;86.80;;;;;;5036421;28;20159;-66
2024/02/20 05:04:12;;;;;;;1.05;0.90;;;8.60;86.80;;;;;;5028280;28;20084;-66
2024/02/20 05:06:38;;;;;;;4.63;1.55;;;8.60;86.80;;;;;;5035711;28;20037;-66
2024/02/20 05:09:05;;;;;;;3.70;1.63;;;8.60;86.70;;;;;;5027505;28;20029;-66
2024/02/20 05:11:31;;;;;;;1.67;1.17;;;8.60;86.70;;;;;;5031201;28;20053;-66
2024/02/20 05:13:57;;;;;;;1.10;0.80;;;8.60;86.70;;;;;;5029566;28;20042;-66
2024/02/20 05:16:23;;;;;;;0.68;0.63;;;8.60;86.60;;;;;;5032448;28;20036;-66
2024/02/20 05:18:49;;;;;;;5.85;1.73;;;8.60;86.60;;;;;;5037047;28;20033;-66
2024/02/20 05:21:15;;;;;;;8.60;2.15;;;8.60;86.60;;;;;;5031609;28;20500;-62
2024/02/20 05:23:41;;;;;;;8.18;1.05;;;8.60;86.60;;;;;;5030903;28;20037;-62
2024/02/20 05:26:07;;;;;;;4.20;1.00;;;8.60;86.70;;;;;;5031797;28;20034;-65
2024/02/20 05:28:33;;;;;;;2.47;0.80;;;8.60;86.70;;;;;;5027806;28;20092;-63
2024/02/20 05:30:59;;;;;;;4.38;1.33;;;8.60;86.70;;;;;;5032640;28;20029;-62
2024/02/20 05:33:25;;;;;;;2.88;1.42;;;8.60;86.70;;;;;;5022826;28;20029;-62
2024/02/20 05:35:51;;;;;;;5.60;1.42;;;8.60;86.70;;;;;;5030357;28;20049;-66
2024/02/20 05:38:18;;;;;;;2.58;2.25;;;8.60;86.60;;;;;;5045674;28;20029;-66
2024/02/20 05:40:44;;;;;;;7.05;1.85;;;8.60;86.60;;;;;;5027021;28;20033;-66
2024/02/20 05:43:10;;;;;;;3.17;1.52;;;8.60;86.70;;;;;;5020866;28;20060;-66
2024/02/20 05:45:36;;;;;;;3.90;0.95;;;8.60;87.00;;;;;;5028889;28;20481;-66
2024/02/20 05:48:02;;;;;;;7.88;3.65;;;8.60;86.80;;;;;;5034173;28;20053;-65
2024/02/20 05:50:30;;;;;;;7.97;2.00;;;8.60;86.80;;;;;;5033556;28;20389;-62
2024/02/20 05:52:56;;;;;;;3.45;1.13;;;8.60;86.90;;;;;;5033463;28;20034;-65
2024/02/20 05:55:22;;;;;;;3.47;1.60;;;8.60;86.90;;;;;;5033610;28;20063;-63
2024/02/20 05:57:49;;;;;;;2.47;1.33;;;8.50;86.90;;;;;;5028607;28;21663;-62
2024/02/20 06:00:15;;;;;;;5.78;1.98;;;8.50;87.00;;;;;;5030583;28;20043;-65
2024/02/20 06:02:40;;;;;;;4.00;1.17;;;8.60;87.00;;;;;;5032200;28;20042;-62
2024/02/20 06:05:09;;;;;;;3.55;1.85;;;8.60;87.00;;;;;;5030072;28;20033;-62
2024/02/20 06:07:35;;;;;;;2.83;1.48;;;8.60;87.00;;;;;;5030150;28;20029;-62
2024/02/20 06:10:01;;;;;;;7.47;1.73;;;8.60;87.00;;;;;;5030711;28;20038;-62
2024/02/20 06:12:26;;;;;;;8.25;1.50;;;8.60;87.00;;;;;;5024023;28;20033;-62
2024/02/20 06:14:52;;;;;;;4.75;1.60;;;8.60;86.90;;;;;;5028322;28;20120;-62
2024/02/20 06:17:18;;;;;;;6.40;1.42;;;8.60;87.00;;;;;;5027913;28;20087;-62
2024/02/20 06:19:43;;;;;;;7.18;1.42;;;8.60;86.90;;;;;;5030332;28;20130;-62
2024/02/20 06:22:09;;;;;;;3.63;2.25;;;8.60;87.00;;;;;;5029000;28;20018;-62
2024/02/20 06:24:35;;;;;;;1.55;1.10;;;8.50;87.00;;;;;;5029183;28;20067;-61
2024/02/20 06:27:05;;;;;;;5.93;1.60;;;8.50;87.00;;;;;;5031084;28;20378;-62
2024/02/20 06:29:31;;;;;;;1.50;1.40;;;8.60;87.10;;;;;;5028308;28;20029;-62
2024/02/20 06:31:58;;;;;;;3.60;1.63;;;8.60;87.00;;;;;;5033135;28;20040;-62
2024/02/20 06:34:24;;;;;;;2.78;1.55;;;8.60;87.00;;;;;;5029168;28;20036;-62
2024/02/20 06:36:50;;;;;;;3.97;1.63;;;8.50;87.00;;;;;;5061941;28;20408;-62
2024/02/20 06:39:16;;;;;;;5.18;1.85;;;8.50;87.00;;;;;;5022812;28;20041;-62
2024/02/20 06:41:41;;;;;;;2.92;1.58;;;8.60;87.10;;;;;;5036200;28;20030;-62
2024/02/20 06:44:07;;;;;;;3.22;1.30;;;8.60;87.10;;;;;;5027939;28;20458;-66
2024/02/20 06:46:32;;;;;;;1.60;1.00;;;8.60;87.00;;;;;;5031188;28;20052;-66
2024/02/20 06:48:58;;;;;;;12.80;2.47;;;8.60;87.00;;;;;;5031986;28;20524;-66
2024/02/20 06:51:24;;;;;;;2.17;1.10;;;8.50;86.90;;;;;;5031948;28;20072;-65
2024/02/20 06:53:50;;;;;;;2.85;1.25;;;8.50;87.00;;;;;;5030762;28;20431;-65
2024/02/20 06:56:15;;;;;;;3.75;1.50;;;8.50;87.10;;;;;;5030508;28;20032;-61
2024/02/20 06:58:41;;;;;;;3.00;1.27;;;8.50;87.00;;;;;;5030855;28;20033;-62
2024/02/20 07:01:08;;;;;;;7.55;2.60;;;8.50;86.90;;;;;;5027081;28;20072;-61
2024/02/20 07:03:33;;;;;;;2.53;1.13;;;8.50;87.50;;;;;;5026889;28;20038;-62
2024/02/20 07:05:59;;;;;;;3.30;2.30;;;8.50;87.00;;;;;;5028975;28;20029;-61
2024/02/20 07:08:25;;;;;;;4.40;2.05;;;8.50;87.00;;;;;;5029598;28;20118;-62
2024/02/20 07:10:50;;;;;;;2.90;1.63;;;8.50;87.70;;;;;;5036031;28;20033;-61
2024/02/20 07:13:18;;;;;;;8.80;2.10;;;8.50;87.20;;;;;;5024909;28;20091;-62
2024/02/20 07:15:44;;;;;;;8.18;2.28;;;8.50;87.30;;;;;;5034541;28;20074;-62
2024/02/20 07:18:10;;;;;;;3.28;2.10;;;8.50;87.50;;;;;;5027460;28;20065;-61
2024/02/20 07:20:36;;;;;;;5.88;2.25;;;8.50;87.50;;;;;;5023550;28;20034;-61
2024/02/20 07:23:02;;;;;;;6.95;2.78;;;8.60;87.50;;;;;;5026149;28;20095;-62
2024/02/20 07:25:28;;;;;;;7.43;3.20;;;8.60;87.60;;;;;;5028919;28;20030;-62
2024/02/20 07:27:54;;;;;;;8.50;2.72;;;8.60;87.70;;;;;;5026523;28;20032;-62
2024/02/20 07:30:19;;;;;;;9.15;2.95;;;8.60;87.90;;;;;;5032773;28;20029;-66
2024/02/20 07:32:45;;;;;;;7.00;2.17;;;8.70;88.00;;;;;;5021649;28;20398;-62
2024/02/20 07:35:11;;;;;;;8.02;2.40;;;8.70;88.30;;;;;;5030912;28;20080;-62
2024/02/20 07:37:38;;;;;;;21.45;4.05;;;8.70;88.40;;;;;;5026064;28;20041;-62
2024/02/20 07:40:04;;;;;;;11.30;3.55;;;8.70;88.50;;;;;;5026853;28;20036;-65
2024/02/20 07:42:30;;;;;;;7.97;2.72;;;8.80;88.60;;;;;;5054256;28;20042;-66
2024/02/20 07:44:56;;;;;;;8.98;2.67;;;8.90;88.50;;;;;;5033568;28;20409;-66
2024/02/20 07:47:22;;;;;;;11.20;2.75;;;8.90;88.50;;;;;;5030615;28;20033;-62
2024/02/20 07:49:47;;;;;;;8.25;2.63;;;9.00;88.60;;;;;;5025045;28;20044;-62
2024/02/20 07:52:13;;;;;;;7.30;2.70;;;9.00;88.70;;;;;;5028288;28;20039;-62
2024/02/20 07:54:40;;;;;;;4.07;2.10;;;9.00;88.70;;;;;;5027383;28;20017;-62
2024/02/20 07:57:05;;;;;;;3.13;1.83;;;9.00;88.70;;;;;;5030647;28;20120;-62
2024/02/20 07:59:31;;;;;;;6.30;2.33;;;9.10;88.80;;;;;;5029735;28;20108;-62
2024/02/20 08:02:02;;;;;;;9.43;2.58;;;9.10;88.70;;;;;;5026019;28;20084;-62
2024/02/20 08:04:28;;;;;;;5.85;2.08;;;9.20;88.70;;;;;;5027745;28;20037;-66
2024/02/20 08:06:54;;;;;;;6.95;1.92;;;9.20;88.70;;;;;;5026364;28;20386;-66
2024/02/20 08:09:20;;;;;;;7.55;3.15;;;9.30;88.70;;;;;;5027449;28;20552;-62
2024/02/20 08:11:46;;;;;;;5.82;1.80;;;9.40;88.60;;;;;;5020641;28;20105;-62
2024/02/20 08:14:12;;;;;;;11.25;3.13;;;9.40;88.50;;;;;;5025873;28;20033;-62
2024/02/20 08:16:39;;;;;;;5.22;2.55;;;9.40;88.60;;;;;;5028182;28;20186;-62
2024/02/20 08:19:04;;;;;;;15.73;3.65;;;9.40;88.60;;;;;;5028481;28;20021;-66
2024/02/20 08:21:30;;;;;;;5.82;2.30;;;9.40;88.60;;;;;;5028870;28;20117;-66
2024/02/20 08:23:58;;;;;;;5.40;2.30;;;9.40;88.60;;;;;;5030221;28;20029;-66
2024/02/20 08:26:25;;;;;;;7.60;2.33;;;9.40;88.60;;;;;;5030179;28;20029;-62
2024/02/20 08:28:51;;;;;;;5.38;2.05;;;9.50;88.60;;;;;;5029555;28;20044;-62
2024/02/20 08:31:18;;;;;;;6.72;3.05;;;9.60;88.60;;;;;;5029658;28;20033;-62
2024/02/20 08:33:45;;;;;;;3.17;1.92;;;9.60;88.40;;;;;;5020301;28;20044;-62
2024/02/20 08:36:11;;;;;;;6.72;2.10;;;9.60;88.60;;;;;;5023981;28;20088;-63
2024/02/20 08:38:37;;;;;;;9.30;2.55;;;9.60;88.50;;;;;;5023764;28;20072;-63
2024/02/20 08:41:03;;;;;;;7.65;3.35;;;9.60;88.60;;;;;;5030130;28;20029;-68
2024/02/20 08:43:28;;;;;;;6.93;2.88;;;9.60;88.60;;;;;;5026033;28;20045;-62
2024/02/20 08:45:54;;;;;;;5.90;2.38;;;9.60;88.60;;;;;;5030676;28;20091;-69
2024/02/20 08:48:19;;;;;;;5.55;2.53;;;9.70;88.60;;;;;;5024595;28;20029;-69
2024/02/20 08:50:46;;;;;;;4.82;2.55;;;9.80;88.50;;;;;;5034637;28;20036;-68
2024/02/20 08:53:12;;;;;;;4.68;2.05;;;9.80;88.30;;;;;;5030742;28;20112;-67
2024/02/20 08:55:38;;;;;;;8.30;3.13;;;9.90;88.40;;;;;;5020818;28;20039;-67
2024/02/20 08:58:05;;;;;;;7.43;2.30;;;9.90;88.30;;;;;;5030305;28;20039;-68
2024/02/20 09:00:31;;;;;;;8.07;2.58;;;10.00;88.20;;;;;;5012947;28;20042;-68
2024/02/20 09:02:58;;;;;;;12.05;2.67;;;10.00;88.20;;;;;;5040039;28;20042;-68
2024/02/20 09:05:24;;;;;;;5.75;2.28;;;10.00;88.10;;;;;;5023877;28;20460;-63
2024/02/20 09:07:50;;;;;;;8.73;2.33;;;10.10;88.20;;;;;;5013264;28;20037;-64
2024/02/20 09:10:15;;;;;;;6.35;1.83;;;10.10;88.10;;;;;;5012691;28;20029;-63
2024/02/20 09:12:41;;;;;;;5.45;3.13;;;10.10;88.20;;;;;;5040479;28;20285;-63
2024/02/20 09:15:07;;;;;;;12.48;2.05;;;10.10;88.20;;;;;;5022650;28;20128;-63
2024/02/20 09:17:33;;;;;;;9.10;2.60;;;10.10;88.10;;;;;;5025124;28;20040;-63
2024/02/20 09:19:58;;;;;;;16.60;3.60;;;10.20;88.10;;;;;;5023408;28;20451;-63
2024/02/20 09:22:26;;;;;;;9.40;2.33;;;10.20;88.00;;;;;;5015502;28;20034;-63
2024/02/20 09:24:52;;;;;;;10.40;3.33;;;10.20;88.10;;;;;;5051107;28;20030;-66
2024/02/20 09:27:18;;;;;;;10.10;3.53;;;10.20;88.10;;;;;;5031170;28;20104;-67
2024/02/20 09:29:43;;;;;;;17.23;4.18;;;10.20;88.00;;;;;;5029638;28;20504;-63
2024/02/20 09:32:09;;;;;;;16.80;5.05;;;10.20;88.10;;;;;;5029342;28;20049;-62
2024/02/20 09:34:35;;;;;;;9.52;2.95;;;10.20;88.20;;;;;;5016758;28;20773;-63
2024/02/20 09:37:02;;;;;;;26.50;3.95;;;10.20;88.20;;;;;;5025152;28;20484;-63
2024/02/20 09:39:28;;;;;;;4.72;1.60;;;10.20;88.20;;;;;;5054386;28;20163;-63
2024/02/20 09:41:53;;;;;;;6.40;2.08;;;10.20;88.20;;;;;;5023829;28;20112;-63
2024/02/20 09:44:20;;;;;;;12.38;3.35;;;10.20;88.30;;;;;;5025592;28;20550;-63
2024/02/20 09:46:51;;;;;;;5.18;2.38;;;10.20;88.20;;;;;;5031753;28;20029;-63
2024/02/20 09:49:18;;;;;;;13.30;3.90;;;10.20;88.30;;;;;;5028740;28;20013;-63
2024/02/20 09:51:45;;;;;;;8.07;2.20;;;10.20;88.10;;;;;;5027154;28;20373;-67
2024/02/20 09:54:11;;;;;;;3.35;1.60;;;10.30;88.10;;;;;;5030736;28;20025;-67
2024/02/20 09:56:40;;;;;;;6.63;3.13;;;10.30;88.20;;;;;;5035322;28;20055;-63
2024/02/20 09:59:06;;;;;;;10.25;3.55;;;10.40;88.20;;;;;;5032412;28;20026;-67
2024/02/20 10:01:32;;;;;;;12.15;4.47;;;10.50;87.70;;;;;;5033099;28;20099;-67
2024/02/20 10:04:01;;;;;;;10.10;3.35;;;10.60;87.60;;;;;;5031432;28;20486;-67
2024/02/20 10:06:27;;;;;;;7.22;2.92;;;10.70;87.70;;;;;;5033086;28;20029;-67
2024/02/20 10:08:56;;;;;;;16.55;3.00;;;10.80;87.50;;;;;;5034572;28;20036;-67
2024/02/20 10:11:22;;;;;;;7.15;3.20;;;10.80;87.00;;;;;;5032894;28;20109;-67
2024/02/20 10:13:52;;;;;;;12.50;4.15;;;10.80;86.90;;;;;;5030589;28;20029;-63
2024/02/20 10:16:19;;;;;;;6.72;3.22;;;10.80;86.60;;;;;;5029907;28;20132;-63
2024/02/20 10:18:58;;;;;;;7.15;2.47;;;10.90;86.70;;;;;;5030837;28;20083;-64
2024/02/20 10:21:28;;;;;;;6.93;3.67;;;10.90;86.50;;;;;;5032201;28;20122;-63
2024/02/20 10:24:01;;;;;;;9.63;3.17;;;10.90;86.50;;;;;;5028830;28;20427;-66
2024/02/20 10:26:30;;;;;;;11.15;3.63;;;11.00;86.60;;;;;;5022009;28;20405;-67
2024/02/20 10:28:58;;;;;;;8.40;2.33;;;11.00;86.30;;;;;;5029542;28;20029;-67
2024/02/20 10:31:25;;;;;;;6.75;2.28;;;11.00;86.20;;;;;;5032226;28;20075;-67
2024/02/20 10:33:51;;;;;;;8.68;3.58;;;11.00;85.90;;;;;;5031105;28;20021;-67
2024/02/20 10:36:21;;;;;;;7.47;2.75;;;11.00;85.90;;;;;;5025272;28;20088;-67
2024/02/20 10:38:51;;;;;;;7.15;2.47;;;11.00;85.80;;;;;;5030993;28;20037;-67
2024/02/20 10:41:18;;;;;;;8.82;2.60;;;11.10;85.70;;;;;;5031175;28;20033;-67
2024/02/20 10:43:48;;;;;;;6.63;2.50;;;11.20;85.50;;;;;;5019738;28;20045;-67
2024/02/20 10:46:14;;;;;;;10.13;3.00;;;11.20;85.10;;;;;;5031640;28;20022;-67
2024/02/20 10:48:47;;;;;;;8.60;2.75;;;11.30;85.10;;;;;;5031460;28;20033;-67
2024/02/20 10:51:14;;;;;;;14.38;3.25;;;11.30;85.10;;;;;;5025886;28;20025;-67
2024/02/20 10:53:43;;;;;;;5.53;3.22;;;11.30;84.60;;;;;;5032078;28;20029;-67
2024/02/20 10:56:09;;;;;;;5.97;2.85;;;11.30;84.70;;;;;;5030958;28;20029;-63
2024/02/20 10:58:41;;;;;;;8.77;3.38;;;11.40;85.40;;;;;;5030770;28;20037;-67
2024/02/20 11:01:13;;;;;;;8.60;2.90;;;11.50;84.80;;;;;;5030687;28;20029;-67
2024/02/20 11:03:40;;;;;;;13.70;3.22;;;11.50;84.60;;;;;;5032051;28;20048;-67
2024/02/20 11:06:11;;;;;;;11.57;3.45;;;11.60;84.60;;;;;;5031722;28;20500;-67
2024/02/20 11:08:36;;;;;;;10.77;3.03;;;11.60;84.20;;;;;;5029254;28;20022;-67
2024/02/20 11:11:12;;;;;;;4.82;2.17;;;11.70;84.30;;;;;;5030269;28;20538;-67
2024/02/20 11:13:38;;;;;;;15.32;4.82;;;11.70;83.90;;;;;;5027873;28;20555;-64
2024/02/20 11:16:14;;;;;;;11.10;3.47;;;11.60;83.60;;;;;;5029791;28;20030;-64
2024/02/20 11:18:53;;;;;;;6.13;2.72;;;11.60;83.50;;;;;;5029076;28;20038;-66
2024/02/20 11:21:30;;;;;;;11.10;3.65;;;11.60;83.70;;;;;;5030875;28;20385;-67
2024/02/20 11:23:56;;;;;;;12.95;3.38;;;11.50;83.20;;;;;;5024585;28;20033;-67
2024/02/20 11:26:29;;;;;;;21.45;4.22;;;11.40;83.30;;;;;;5029456;28;20095;-67
2024/02/20 11:28:58;;;;;;;4.50;2.13;;;11.40;83.40;;;;;;5020680;28;20044;-64
2024/02/20 11:31:28;;;;;;;8.35;3.38;;;11.50;83.50;;;;;;5036011;28;20401;-67
2024/02/20 11:33:55;;;;;;;11.52;3.22;;;11.50;83.00;;;;;;5026846;28;20033;-63
2024/02/20 11:36:21;;;;;;;14.57;3.90;;;11.50;82.80;;;;;;5028752;28;20021;-63
2024/02/20 11:39:05;;;;;;;7.50;2.47;;;11.50;82.60;;;;;;5028345;28;20029;-63
2024/02/20 11:41:32;;;;;;;9.32;4.00;;;11.60;82.50;;;;;;5028893;28;20029;-63
2024/02/20 11:44:05;;;;;;;12.63;2.85;;;11.70;82.50;;;;;;5030979;28;20042;-67
2024/02/20 11:46:33;;;;;;;8.25;2.88;;;11.90;82.40;;;;;;5033208;28;20536;-67
2024/02/20 11:49:00;;;;;;;10.15;2.63;;;12.00;82.10;;;;;;5062642;28;20013;-67
2024/02/20 11:51:26;;;;;;;7.60;2.67;;;12.20;81.70;;;;;;5031065;28;20033;-67
2024/02/20 11:54:06;;;;;;;6.78;3.25;;;12.40;81.30;;;;;;5032319;28;20481;-63
2024/02/20 11:56:33;;;;;;;11.55;4.20;;;12.60;81.10;;;;;;5021352;28;20065;-63
2024/02/20 11:58:59;;;;;;;9.70;2.83;;;12.70;80.30;;;;;;5029510;28;20041;-63
2024/02/20 12:01:26;;;;;;;10.50;2.15;;;12.80;79.40;;;;;;5030192;28;20026;-67
2024/02/20 12:03:52;;;;;;;11.05;2.63;;;12.90;79.20;;;;;;5034844;28;20030;-67
2024/02/20 12:06:28;;;;;;;10.02;3.33;;;12.90;78.70;;;;;;5030816;28;20021;-64
2024/02/20 12:08:55;;;;;;;8.90;2.97;;;12.80;77.70;;;;;;5023603;28;20025;-63
2024/02/20 12:11:26;;;;;;;7.72;2.50;;;12.80;77.60;;;;;;5033278;28;20036;-67
2024/02/20 12:13:56;;;;;;;8.70;2.60;;;12.90;77.80;;;;;;5037211;28;20419;-67
2024/02/20 12:16:24;;;;;;;8.43;2.65;;;12.90;78.00;;;;;;5025414;28;20041;-67
2024/02/20 12:18:51;;;;;;;7.32;2.88;;;13.00;77.80;;;;;;5030250;28;20025;-67
2024/02/20 12:21:22;;;;;;;9.50;2.80;;;13.00;77.40;;;;;;5034943;28;20084;-67
2024/02/20 12:23:53;;;;;;;4.55;2.67;;;13.00;76.80;;;;;;5028914;28;20041;-67
2024/02/20 12:26:19;;;;;;;6.78;2.40;;;13.00;77.40;;;;;;5030044;28;20029;-66
2024/02/20 12:28:45;;;;;;;5.22;1.98;;;13.00;77.10;;;;;;5034250;28;20338;-67
2024/02/20 12:31:11;;;;;;;11.88;2.97;;;13.00;77.30;;;;;;5033090;28;20026;-67
2024/02/20 12:33:37;;;;;;;3.08;2.45;;;13.10;77.10;;;;;;5023097;28;20026;-67
2024/02/20 12:36:03;;;;;;;8.65;2.70;;;13.10;76.30;;;;;;5034895;28;20160;-63
2024/02/20 12:38:29;;;;;;;9.75;2.42;;;13.10;76.50;;;;;;5032342;28;20042;-63
2024/02/20 12:40:56;;;;;;;14.90;2.58;;;13.10;76.30;;;;;;5032744;28;20022;-63
2024/02/20 12:43:22;;;;;;;5.25;2.38;;;13.20;76.10;;;;;;5030903;28;20053;-63
2024/02/20 12:45:48;;;;;;;10.75;2.65;;;13.20;76.10;;;;;;5036387;28;20484;-63
2024/02/20 12:48:14;;;;;;;4.05;2.40;;;13.30;75.30;;;;;;5031218;28;20102;-63
2024/02/20 12:50:39;;;;;;;9.05;2.17;;;13.30;75.40;;;;;;5031569;28;20147;-63